sensor_id;sensor_type;location;lat;lon;timestamp;P1;durP1;ratioP1;P2;durP2;ratioP2
8502;SDS011;4289;48.664;12.700;2023-02-13T08:49:14;0.20;;;0.20;;
8502;SDS011;4289;48.664;12.700;2023-02-13T08:52:37;0.20;;;0.20;;
8502;SDS011;4289;48.664;12.700;2023-02-13T08:55:59;0.20;;;0.20;;
8502;SDS011;4289;48.664;12.700;2023-02-13T08:59:22;0.10;;;0.10;;
8502;SDS011;4289;48.664;12.700;2023-02-13T09:02:44;0.20;;;0.20;;
8502;SDS011;4289;48.664;12.700;2023-02-13T09:06:08;0.10;;;0.10;;
8502;SDS011;4289;48.664;12.700;2023-02-13T09:09:31;0.20;;;0.20;;
8502;SDS011;4289;48.664;12.700;2023-02-13T09:12:53;0.13;;;0.13;;
8502;SDS011;4289;48.664;12.700;2023-02-13T09:16:16;0.10;;;0.10;;
8502;SDS011;4289;48.664;12.700;2023-02-13T09:19:38;0.20;;;0.20;;
8502;SDS011;4289;48.664;12.700;2023-02-13T09:23:02;0.10;;;0.10;;
8502;SDS011;4289;48.664;12.700;2023-02-13T09:26:24;0.10;;;0.10;;
8502;SDS011;4289;48.664;12.700;2023-02-13T09:29:47;0.10;;;0.10;;
8502;SDS011;4289;48.664;12.700;2023-02-13T09:33:09;0.13;;;0.13;;
8502;SDS011;4289;48.664;12.700;2023-02-13T09:36:32;0.20;;;0.20;;
8502;SDS011;4289;48.664;12.700;2023-02-13T09:39:56;0.10;;;0.10;;
8502;SDS011;4289;48.664;12.700;2023-02-13T09:43:21;0.10;;;0.10;;
8502;SDS011;4289;48.664;12.700;2023-02-13T09:46:48;0.13;;;0.13;;
8502;SDS011;4289;48.664;12.700;2023-02-13T09:50:11;0.17;;;0.17;;
8502;SDS011;4289;48.664;12.700;2023-02-13T09:53:37;0.10;;;0.10;;
8502;SDS011;4289;48.664;12.700;2023-02-13T09:57:06;0.10;;;0.10;;
8502;SDS011;4289;48.664;12.700;2023-02-13T10:00:33;0.10;;;0.10;;
8502;SDS011;4289;48.664;12.700;2023-02-13T10:04:13;0.10;;;0.10;;
8502;SDS011;4289;48.664;12.700;2023-02-13T10:07:47;0.07;;;0.07;;
8502;SDS011;4289;48.664;12.700;2023-02-13T10:11:21;0.10;;;0.10;;
8502;SDS011;4289;48.664;12.700;2023-02-13T10:14:53;0.10;;;0.10;;
8502;SDS011;4289;48.664;12.700;2023-02-13T10:18:24;0.10;;;0.10;;
8502;SDS011;4289;48.664;12.700;2023-02-13T10:21:53;0.10;;;0.10;;
8502;SDS011;4289;48.664;12.700;2023-02-13T10:25:21;0.10;;;0.10;;
8502;SDS011;4289;48.664;12.700;2023-02-13T10:28:46;0.10;;;0.10;;
8502;SDS011;4289;48.664;12.700;2023-02-13T10:32:37;0.20;;;0.20;;
8502;SDS011;4289;48.664;12.700;2023-02-13T10:36:08;0.20;;;0.20;;
8502;SDS011;4289;48.664;12.700;2023-02-13T10:39:36;0.10;;;0.10;;
8502;SDS011;4289;48.664;12.700;2023-02-13T10:43:02;0.10;;;0.10;;
8502;SDS011;4289;48.664;12.700;2023-02-13T10:46:29;0.10;;;0.10;;
8502;SDS011;4289;48.664;12.700;2023-02-13T10:50:02;0.10;;;0.10;;
8502;SDS011;4289;48.664;12.700;2023-02-13T10:53:34;0.10;;;0.10;;
8502;SDS011;4289;48.664;12.700;2023-02-13T10:57:04;0.10;;;0.10;;
8502;SDS011;4289;48.664;12.700;2023-02-13T11:00:33;0.10;;;0.10;;
8502;SDS011;4289;48.664;12.700;2023-02-13T11:04:00;0.10;;;0.10;;
8502;SDS011;4289;48.664;12.700;2023-02-13T11:07:26;0.10;;;0.10;;
8502;SDS011;4289;48.664;12.700;2023-02-13T11:10:50;0.10;;;0.10;;
8502;SDS011;4289;48.664;12.700;2023-02-13T11:14:14;0.10;;;0.10;;
8502;SDS011;4289;48.664;12.700;2023-02-13T11:17:38;0.10;;;0.10;;
8502;SDS011;4289;48.664;12.700;2023-02-13T11:21:07;0.10;;;0.10;;
8502;SDS011;4289;48.664;12.700;2023-02-13T11:24:33;0.10;;;0.10;;
8502;SDS011;4289;48.664;12.700;2023-02-13T11:28:03;0.10;;;0.10;;
8502;SDS011;4289;48.664;12.700;2023-02-13T11:31:30;0.10;;;0.10;;
8502;SDS011;4289;48.664;12.700;2023-02-13T11:34:53;0.10;;;0.10;;
8502;SDS011;4289;48.664;12.700;2023-02-13T11:38:24;0.10;;;0.10;;
8502;SDS011;4289;48.664;12.700;2023-02-13T11:41:48;0.10;;;0.10;;
8502;SDS011;4289;48.664;12.700;2023-02-13T11:45:19;0.10;;;0.10;;
8502;SDS011;4289;48.664;12.700;2023-02-13T11:48:43;0.10;;;0.10;;
8502;SDS011;4289;48.664;12.700;2023-02-13T11:52:22;0.10;;;0.10;;
8502;SDS011;4289;48.664;12.700;2023-02-13T11:55:59;0.10;;;0.10;;
8502;SDS011;4289;48.664;12.700;2023-02-13T11:59:26;0.10;;;0.10;;
8502;SDS011;4289;48.664;12.700;2023-02-13T12:02:52;0.00;;;0.00;;
8502;SDS011;4289;48.664;12.700;2023-02-13T12:06:14;0.10;;;0.10;;
8502;SDS011;4289;48.664;12.700;2023-02-13T12:09:38;0.10;;;0.10;;
8502;SDS011;4289;48.664;12.700;2023-02-13T12:13:03;0.10;;;0.10;;
8502;SDS011;4289;48.664;12.700;2023-02-13T12:16:30;0.10;;;0.10;;
8502;SDS011;4289;48.664;12.700;2023-02-13T12:19:56;0.10;;;0.10;;
8502;SDS011;4289;48.664;12.700;2023-02-13T12:23:22;0.10;;;0.10;;
8502;SDS011;4289;48.664;12.700;2023-02-13T12:26:52;0.10;;;0.10;;
8502;SDS011;4289;48.664;12.700;2023-02-13T12:30:29;0.03;;;0.03;;
8502;SDS011;4289;48.664;12.700;2023-02-13T12:37:52;0.10;;;0.10;;
8502;SDS011;4289;48.664;12.700;2023-02-13T12:41:18;0.10;;;0.10;;
8502;SDS011;4289;48.664;12.700;2023-02-13T12:44:48;0.10;;;0.10;;
8502;SDS011;4289;48.664;12.700;2023-02-13T12:48:34;0.10;;;0.10;;
8502;SDS011;4289;48.664;12.700;2023-02-13T12:52:09;0.10;;;0.10;;
8502;SDS011;4289;48.664;12.700;2023-02-13T12:56:17;0.10;;;0.10;;
8502;SDS011;4289;48.664;12.700;2023-02-13T12:59:53;0.10;;;0.10;;
8502;SDS011;4289;48.664;12.700;2023-02-13T13:03:36;0.10;;;0.10;;
8502;SDS011;4289;48.664;12.700;2023-02-13T13:07:15;0.10;;;0.10;;
8502;SDS011;4289;48.664;12.700;2023-02-13T13:11:01;0.10;;;0.10;;
8502;SDS011;4289;48.664;12.700;2023-02-13T13:14:33;0.10;;;0.10;;
8502;SDS011;4289;48.664;12.700;2023-02-13T13:18:02;0.10;;;0.10;;
8502;SDS011;4289;48.664;12.700;2023-02-13T13:21:32;0.10;;;0.10;;
8502;SDS011;4289;48.664;12.700;2023-02-13T13:25:01;0.10;;;0.10;;
8502;SDS011;4289;48.664;12.700;2023-02-13T13:28:31;0.10;;;0.10;;
8502;SDS011;4289;48.664;12.700;2023-02-13T13:31:56;0.10;;;0.10;;
8502;SDS011;4289;48.664;12.700;2023-02-13T13:35:21;0.10;;;0.10;;
8502;SDS011;4289;48.664;12.700;2023-02-13T13:38:46;0.10;;;0.10;;
8502;SDS011;4289;48.664;12.700;2023-02-13T13:42:15;0.10;;;0.10;;
8502;SDS011;4289;48.664;12.700;2023-02-13T13:45:41;0.10;;;0.10;;
8502;SDS011;4289;48.664;12.700;2023-02-13T13:49:09;0.10;;;0.10;;
8502;SDS011;4289;48.664;12.700;2023-02-13T13:52:38;0.10;;;0.10;;
8502;SDS011;4289;48.664;12.700;2023-02-13T13:56:02;0.10;;;0.10;;
8502;SDS011;4289;48.664;12.700;2023-02-13T14:03:35;0.10;;;0.10;;
8502;SDS011;4289;48.664;12.700;2023-02-13T14:07:13;0.10;;;0.10;;
8502;SDS011;4289;48.664;12.700;2023-02-13T14:14:43;0.10;;;0.10;;
8502;SDS011;4289;48.664;12.700;2023-02-13T14:18:06;0.10;;;0.10;;
8502;SDS011;4289;48.664;12.700;2023-02-13T14:21:42;0.10;;;0.10;;
8502;SDS011;4289;48.664;12.700;2023-02-13T14:25:05;0.10;;;0.10;;
8502;SDS011;4289;48.664;12.700;2023-02-13T14:28:39;0.10;;;0.10;;
8502;SDS011;4289;48.664;12.700;2023-02-13T14:35:36;0.10;;;0.10;;
8502;SDS011;4289;48.664;12.700;2023-02-13T14:39:01;0.10;;;0.10;;
8502;SDS011;4289;48.664;12.700;2023-02-13T14:42:25;0.10;;;0.10;;
8502;SDS011;4289;48.664;12.700;2023-02-13T14:45:50;0.10;;;0.10;;
8502;SDS011;4289;48.664;12.700;2023-02-13T14:49:16;0.10;;;0.10;;
8502;SDS011;4289;48.664;12.700;2023-02-13T14:52:41;0.10;;;0.10;;
8502;SDS011;4289;48.664;12.700;2023-02-13T14:56:06;0.10;;;0.10;;
8502;SDS011;4289;48.664;12.700;2023-02-13T14:59:33;0.10;;;0.10;;
8502;SDS011;4289;48.664;12.700;2023-02-13T15:02:58;0.10;;;0.10;;
8502;SDS011;4289;48.664;12.700;2023-02-13T15:06:26;0.10;;;0.10;;
8502;SDS011;4289;48.664;12.700;2023-02-13T15:09:50;0.10;;;0.10;;
8502;SDS011;4289;48.664;12.700;2023-02-13T15:13:16;0.10;;;0.10;;
8502;SDS011;4289;48.664;12.700;2023-02-13T15:16:40;0.10;;;0.10;;
8502;SDS011;4289;48.664;12.700;2023-02-13T15:20:03;0.10;;;0.10;;
8502;SDS011;4289;48.664;12.700;2023-02-13T15:23:31;0.10;;;0.10;;
8502;SDS011;4289;48.664;12.700;2023-02-13T15:26:57;0.10;;;0.10;;
8502;SDS011;4289;48.664;12.700;2023-02-13T15:30:23;0.10;;;0.10;;
8502;SDS011;4289;48.664;12.700;2023-02-13T15:33:47;0.10;;;0.10;;
8502;SDS011;4289;48.664;12.700;2023-02-13T15:37:17;0.10;;;0.10;;
8502;SDS011;4289;48.664;12.700;2023-02-13T15:40:41;0.10;;;0.10;;
8502;SDS011;4289;48.664;12.700;2023-02-13T15:44:05;0.10;;;0.10;;
8502;SDS011;4289;48.664;12.700;2023-02-13T15:47:29;0.10;;;0.10;;
8502;SDS011;4289;48.664;12.700;2023-02-13T15:50:52;0.10;;;0.10;;
8502;SDS011;4289;48.664;12.700;2023-02-13T15:54:22;0.10;;;0.10;;
8502;SDS011;4289;48.664;12.700;2023-02-13T15:57:45;0.10;;;0.10;;
8502;SDS011;4289;48.664;12.700;2023-02-13T16:01:08;0.10;;;0.10;;
8502;SDS011;4289;48.664;12.700;2023-02-13T16:04:32;0.10;;;0.10;;
8502;SDS011;4289;48.664;12.700;2023-02-13T16:07:56;0.10;;;0.10;;
8502;SDS011;4289;48.664;12.700;2023-02-13T16:11:24;0.10;;;0.10;;
8502;SDS011;4289;48.664;12.700;2023-02-13T16:14:51;0.10;;;0.10;;
8502;SDS011;4289;48.664;12.700;2023-02-13T16:18:17;0.10;;;0.10;;
8502;SDS011;4289;48.664;12.700;2023-02-13T16:21:41;0.10;;;0.10;;
8502;SDS011;4289;48.664;12.700;2023-02-13T16:25:08;0.10;;;0.10;;
8502;SDS011;4289;48.664;12.700;2023-02-13T16:28:38;0.10;;;0.10;;
8502;SDS011;4289;48.664;12.700;2023-02-13T16:32:04;0.10;;;0.10;;
8502;SDS011;4289;48.664;12.700;2023-02-13T16:35:33;0.17;;;0.17;;
8502;SDS011;4289;48.664;12.700;2023-02-13T16:38:59;0.10;;;0.10;;
8502;SDS011;4289;48.664;12.700;2023-02-13T16:42:31;0.10;;;0.10;;
8502;SDS011;4289;48.664;12.700;2023-02-13T16:45:54;0.10;;;0.10;;
8502;SDS011;4289;48.664;12.700;2023-02-13T16:49:32;0.10;;;0.10;;
8502;SDS011;4289;48.664;12.700;2023-02-13T16:52:58;0.10;;;0.10;;
8502;SDS011;4289;48.664;12.700;2023-02-13T16:56:23;0.10;;;0.10;;
8502;SDS011;4289;48.664;12.700;2023-02-13T16:59:56;0.10;;;0.10;;
8502;SDS011;4289;48.664;12.700;2023-02-13T17:03:20;0.10;;;0.10;;
8502;SDS011;4289;48.664;12.700;2023-02-13T17:06:42;0.10;;;0.10;;
8502;SDS011;4289;48.664;12.700;2023-02-13T17:10:17;0.10;;;0.10;;
8502;SDS011;4289;48.664;12.700;2023-02-13T17:13:43;0.10;;;0.10;;
8502;SDS011;4289;48.664;12.700;2023-02-13T17:17:08;0.10;;;0.10;;
8502;SDS011;4289;48.664;12.700;2023-02-13T17:20:39;0.10;;;0.10;;
8502;SDS011;4289;48.664;12.700;2023-02-13T17:24:03;0.10;;;0.10;;
8502;SDS011;4289;48.664;12.700;2023-02-13T17:27:27;0.10;;;0.10;;
8502;SDS011;4289;48.664;12.700;2023-02-13T17:30:51;0.10;;;0.10;;
8502;SDS011;4289;48.664;12.700;2023-02-13T17:34:18;0.10;;;0.10;;
8502;SDS011;4289;48.664;12.700;2023-02-13T17:37:41;0.10;;;0.10;;
8502;SDS011;4289;48.664;12.700;2023-02-13T17:41:04;0.10;;;0.10;;
8502;SDS011;4289;48.664;12.700;2023-02-13T17:44:26;0.10;;;0.10;;
8502;SDS011;4289;48.664;12.700;2023-02-13T17:47:50;0.17;;;0.17;;
8502;SDS011;4289;48.664;12.700;2023-02-13T17:51:13;0.10;;;0.10;;
8502;SDS011;4289;48.664;12.700;2023-02-13T17:54:35;0.10;;;0.10;;
8502;SDS011;4289;48.664;12.700;2023-02-13T17:57:57;0.10;;;0.10;;
8502;SDS011;4289;48.664;12.700;2023-02-13T18:01:21;0.10;;;0.10;;
8502;SDS011;4289;48.664;12.700;2023-02-13T18:04:44;0.20;;;0.20;;
8502;SDS011;4289;48.664;12.700;2023-02-13T18:08:07;0.10;;;0.10;;
8502;SDS011;4289;48.664;12.700;2023-02-13T18:11:31;0.10;;;0.10;;
8502;SDS011;4289;48.664;12.700;2023-02-13T18:14:53;0.10;;;0.10;;
8502;SDS011;4289;48.664;12.700;2023-02-13T18:18:16;0.10;;;0.10;;
8502;SDS011;4289;48.664;12.700;2023-02-13T18:21:40;0.10;;;0.10;;
8502;SDS011;4289;48.664;12.700;2023-02-13T18:25:02;0.10;;;0.10;;
8502;SDS011;4289;48.664;12.700;2023-02-13T18:28:25;0.10;;;0.10;;
8502;SDS011;4289;48.664;12.700;2023-02-13T18:31:48;0.20;;;0.20;;
8502;SDS011;4289;48.664;12.700;2023-02-13T18:35:12;0.10;;;0.10;;
8502;SDS011;4289;48.664;12.700;2023-02-13T18:38:38;0.10;;;0.10;;
8502;SDS011;4289;48.664;12.700;2023-02-13T18:42:00;0.10;;;0.10;;
8502;SDS011;4289;48.664;12.700;2023-02-13T18:45:22;0.10;;;0.10;;
8502;SDS011;4289;48.664;12.700;2023-02-13T18:48:45;0.10;;;0.10;;
8502;SDS011;4289;48.664;12.700;2023-02-13T18:52:08;0.10;;;0.10;;
8502;SDS011;4289;48.664;12.700;2023-02-13T18:55:32;0.10;;;0.10;;
8502;SDS011;4289;48.664;12.700;2023-02-13T18:58:54;0.10;;;0.10;;
8502;SDS011;4289;48.664;12.700;2023-02-13T19:02:17;0.10;;;0.10;;
8502;SDS011;4289;48.664;12.700;2023-02-13T19:05:39;0.10;;;0.10;;
8502;SDS011;4289;48.664;12.700;2023-02-13T19:09:02;0.10;;;0.10;;
8502;SDS011;4289;48.664;12.700;2023-02-13T19:12:26;0.10;;;0.10;;
8502;SDS011;4289;48.664;12.700;2023-02-13T19:15:48;0.10;;;0.10;;
8502;SDS011;4289;48.664;12.700;2023-02-13T19:19:11;0.20;;;0.20;;
8502;SDS011;4289;48.664;12.700;2023-02-13T19:22:33;0.10;;;0.10;;
8502;SDS011;4289;48.664;12.700;2023-02-13T19:25:56;0.20;;;0.20;;
8502;SDS011;4289;48.664;12.700;2023-02-13T19:29:20;0.10;;;0.10;;
8502;SDS011;4289;48.664;12.700;2023-02-13T19:32:42;0.10;;;0.10;;
8502;SDS011;4289;48.664;12.700;2023-02-13T19:36:05;0.10;;;0.10;;
8502;SDS011;4289;48.664;12.700;2023-02-13T19:39:30;0.10;;;0.10;;
8502;SDS011;4289;48.664;12.700;2023-02-13T19:42:53;0.10;;;0.10;;
8502;SDS011;4289;48.664;12.700;2023-02-13T19:46:17;0.10;;;0.10;;
8502;SDS011;4289;48.664;12.700;2023-02-13T19:49:40;0.10;;;0.10;;
8502;SDS011;4289;48.664;12.700;2023-02-13T19:53:02;0.10;;;0.10;;
8502;SDS011;4289;48.664;12.700;2023-02-13T19:56:25;0.10;;;0.10;;
8502;SDS011;4289;48.664;12.700;2023-02-13T19:59:48;0.13;;;0.13;;
8502;SDS011;4289;48.664;12.700;2023-02-13T20:03:12;0.10;;;0.10;;
8502;SDS011;4289;48.664;12.700;2023-02-13T20:06:35;0.20;;;0.20;;
8502;SDS011;4289;48.664;12.700;2023-02-13T20:09:57;0.10;;;0.10;;
8502;SDS011;4289;48.664;12.700;2023-02-13T20:13:20;0.10;;;0.10;;
8502;SDS011;4289;48.664;12.700;2023-02-13T20:16:43;0.10;;;0.10;;
8502;SDS011;4289;48.664;12.700;2023-02-13T20:20:08;0.10;;;0.10;;
8502;SDS011;4289;48.664;12.700;2023-02-13T20:23:31;0.10;;;0.10;;
8502;SDS011;4289;48.664;12.700;2023-02-13T20:26:53;0.10;;;0.10;;
8502;SDS011;4289;48.664;12.700;2023-02-13T20:30:18;0.10;;;0.10;;
8502;SDS011;4289;48.664;12.700;2023-02-13T20:33:40;0.10;;;0.10;;
8502;SDS011;4289;48.664;12.700;2023-02-13T20:37:04;0.20;;;0.20;;
8502;SDS011;4289;48.664;12.700;2023-02-13T20:40:27;0.10;;;0.10;;
8502;SDS011;4289;48.664;12.700;2023-02-13T20:43:50;0.10;;;0.10;;
8502;SDS011;4289;48.664;12.700;2023-02-13T20:47:13;0.10;;;0.10;;
8502;SDS011;4289;48.664;12.700;2023-02-13T20:50:35;0.20;;;0.20;;
8502;SDS011;4289;48.664;12.700;2023-02-13T20:53:59;0.20;;;0.20;;
8502;SDS011;4289;48.664;12.700;2023-02-13T20:57:22;0.10;;;0.10;;
8502;SDS011;4289;48.664;12.700;2023-02-13T21:00:45;0.10;;;0.10;;
8502;SDS011;4289;48.664;12.700;2023-02-13T21:04:07;0.10;;;0.10;;
8502;SDS011;4289;48.664;12.700;2023-02-13T21:07:32;0.20;;;0.20;;
8502;SDS011;4289;48.664;12.700;2023-02-13T21:11:07;0.10;;;0.10;;
8502;SDS011;4289;48.664;12.700;2023-02-13T21:14:30;0.20;;;0.20;;
8502;SDS011;4289;48.664;12.700;2023-02-13T21:17:52;0.20;;;0.20;;
8502;SDS011;4289;48.664;12.700;2023-02-13T21:21:17;0.20;;;0.20;;
8502;SDS011;4289;48.664;12.700;2023-02-13T21:24:40;0.10;;;0.10;;
8502;SDS011;4289;48.664;12.700;2023-02-13T21:28:05;0.10;;;0.10;;
8502;SDS011;4289;48.664;12.700;2023-02-13T21:31:28;0.10;;;0.10;;
8502;SDS011;4289;48.664;12.700;2023-02-13T21:34:53;0.20;;;0.20;;
8502;SDS011;4289;48.664;12.700;2023-02-13T21:38:16;0.20;;;0.20;;
8502;SDS011;4289;48.664;12.700;2023-02-13T21:41:39;0.10;;;0.10;;
8502;SDS011;4289;48.664;12.700;2023-02-13T21:45:03;0.20;;;0.20;;
8502;SDS011;4289;48.664;12.700;2023-02-13T21:48:26;0.20;;;0.20;;
8502;SDS011;4289;48.664;12.700;2023-02-13T21:51:48;0.10;;;0.10;;
8502;SDS011;4289;48.664;12.700;2023-02-13T21:55:11;0.10;;;0.10;;
8502;SDS011;4289;48.664;12.700;2023-02-13T21:58:34;0.20;;;0.20;;
8502;SDS011;4289;48.664;12.700;2023-02-13T22:01:58;0.10;;;0.10;;
8502;SDS011;4289;48.664;12.700;2023-02-13T22:05:21;0.10;;;0.10;;
8502;SDS011;4289;48.664;12.700;2023-02-13T22:08:45;0.20;;;0.20;;
8502;SDS011;4289;48.664;12.700;2023-02-13T22:12:08;0.10;;;0.10;;
8502;SDS011;4289;48.664;12.700;2023-02-13T22:15:30;0.20;;;0.20;;
8502;SDS011;4289;48.664;12.700;2023-02-13T22:18:54;0.20;;;0.20;;
8502;SDS011;4289;48.664;12.700;2023-02-13T22:22:16;0.20;;;0.20;;
8502;SDS011;4289;48.664;12.700;2023-02-13T22:25:39;0.20;;;0.20;;
8502;SDS011;4289;48.664;12.700;2023-02-13T22:29:07;0.20;;;0.20;;
8502;SDS011;4289;48.664;12.700;2023-02-13T22:32:30;0.13;;;0.13;;
8502;SDS011;4289;48.664;12.700;2023-02-13T22:35:54;0.20;;;0.20;;
8502;SDS011;4289;48.664;12.700;2023-02-13T22:39:19;0.33;;;0.33;;
8502;SDS011;4289;48.664;12.700;2023-02-13T22:42:41;0.27;;;0.27;;
8502;SDS011;4289;48.664;12.700;2023-02-13T22:46:07;0.30;;;0.30;;
8502;SDS011;4289;48.664;12.700;2023-02-13T22:49:31;0.30;;;0.30;;
8502;SDS011;4289;48.664;12.700;2023-02-13T22:52:56;0.20;;;0.20;;
8502;SDS011;4289;48.664;12.700;2023-02-13T22:56:19;0.43;;;0.43;;
8502;SDS011;4289;48.664;12.700;2023-02-13T22:59:41;0.40;;;0.40;;
8502;SDS011;4289;48.664;12.700;2023-02-13T23:03:04;0.43;;;0.43;;
8502;SDS011;4289;48.664;12.700;2023-02-13T23:06:26;0.30;;;0.30;;
8502;SDS011;4289;48.664;12.700;2023-02-13T23:09:50;0.20;;;0.20;;
8502;SDS011;4289;48.664;12.700;2023-02-13T23:13:13;0.20;;;0.20;;
8502;SDS011;4289;48.664;12.700;2023-02-13T23:16:34;0.30;;;0.30;;
8502;SDS011;4289;48.664;12.700;2023-02-13T23:20:12;0.30;;;0.30;;
8502;SDS011;4289;48.664;12.700;2023-02-13T23:23:35;0.30;;;0.30;;
8502;SDS011;4289;48.664;12.700;2023-02-13T23:26:59;0.23;;;0.23;;
8502;SDS011;4289;48.664;12.700;2023-02-13T23:30:22;0.20;;;0.20;;
8502;SDS011;4289;48.664;12.700;2023-02-13T23:33:45;0.20;;;0.20;;
8502;SDS011;4289;48.664;12.700;2023-02-13T23:37:07;0.20;;;0.20;;
8502;SDS011;4289;48.664;12.700;2023-02-13T23:40:30;0.20;;;0.20;;
8502;SDS011;4289;48.664;12.700;2023-02-13T23:43:54;0.20;;;0.20;;
8502;SDS011;4289;48.664;12.700;2023-02-13T23:47:16;0.20;;;0.20;;
8502;SDS011;4289;48.664;12.700;2023-02-13T23:50:38;0.20;;;0.20;;
8502;SDS011;4289;48.664;12.700;2023-02-13T23:54:01;0.20;;;0.20;;
8502;SDS011;4289;48.664;12.700;2023-02-13T23:57:24;0.50;;;0.50;;
